Time;durP1;ratioP1;P1;durP2;ratioP2;P2;SDS_P1;SDS_P2;PMS_P1;PMS_P2;Temp;Humidity;BMP_temperature;BMP_pressure;BME280_temperature;BME280_humidity;BME280_pressure;Samples;Min_cycle;Max_cycle;Signal;HPM_P1;HPM_P2
2023/10/08 00:02:05;;;;;;;5.07;2.40;;;;;;;;;;6066955;23;20010;-73
2023/10/08 00:04:37;;;;;;;5.75;2.90;;;;;;;;;;6092233;23;20007;-73
2023/10/08 00:07:07;;;;;;;6.40;2.60;;;;;;;;;;6091033;23;20076;-73
2023/10/08 00:09:36;;;;;;;4.30;2.42;;;;;;;;;;6066494;23;20093;-74
2023/10/08 00:12:03;;;;;;;5.88;2.63;;;;;;;;;;6066588;23;20011;-74
2023/10/08 00:14:29;;;;;;;4.28;2.10;;;;;;;;;;6092765;23;20441;-74
2023/10/08 00:16:55;;;;;;;7.63;3.22;;;;;;;;;;6093229;23;20006;-75
2023/10/08 00:19:21;;;;;;;6.18;2.25;;;;;;;;;;6092237;23;20017;-73
2023/10/08 00:21:48;;;;;;;6.82;2.90;;;;;;;;;;6066665;23;20369;-74
2023/10/08 00:24:15;;;;;;;10.25;2.67;;;;;;;;;;6066848;23;20006;-74
2023/10/08 00:26:41;;;;;;;4.78;2.47;;;;;;;;;;6067070;23;20033;-73
2023/10/08 00:29:15;;;;;;;5.15;2.60;;;;;;;;;;6092539;23;20320;-75
2023/10/08 00:31:45;;;;;;;5.47;2.58;;;;;;;;;;6066985;23;20014;-74
2023/10/08 00:34:14;;;;;;;3.58;2.08;;;;;;;;;;6092685;23;20080;-73
2023/10/08 00:36:46;;;;;;;8.05;3.10;;;;;;;;;;6061397;23;20476;-74
2023/10/08 00:39:22;;;;;;;7.07;2.50;;;;;;;;;;6063788;23;20063;-74
2023/10/08 00:41:49;;;;;;;5.63;2.88;;;;;;;;;;6062024;23;20094;-73
2023/10/08 00:44:28;;;;;;;6.95;3.15;;;;;;;;;;6061705;23;20354;-74
2023/10/08 00:46:55;;;;;;;5.35;2.53;;;;;;;;;;6062491;23;20015;-73
2023/10/08 00:49:38;;;;;;;8.88;3.10;;;;;;;;;;6063527;23;20077;-74
2023/10/08 00:54:46;;;;;;;6.35;2.00;;;;;;;;;;6063685;23;20587;-74
2023/10/08 00:57:20;;;;;;;7.75;3.00;;;;;;;;;;6062043;23;20344;-73
2023/10/08 00:59:52;;;;;;;8.68;2.58;;;;;;;;;;6062048;23;20097;-74
2023/10/08 01:02:21;;;;;;;6.72;2.58;;;;;;;;;;6061691;23;20017;-72
2023/10/08 01:04:46;;;;;;;5.50;2.30;;;;;;;;;;6062354;23;20062;-73
2023/10/08 01:07:13;;;;;;;4.90;2.75;;;;;;;;;;6085779;23;20003;-74
2023/10/08 01:09:42;;;;;;;6.68;2.70;;;;;;;;;;6061486;23;20015;-74
2023/10/08 01:12:22;;;;;;;10.57;3.15;;;;;;;;;;6061813;23;20130;-73
2023/10/08 01:14:53;;;;;;;6.22;2.20;;;;;;;;;;6061929;23;20007;-74
2023/10/08 01:17:19;;;;;;;5.93;2.38;;;;;;;;;;6061645;23;20049;-74
2023/10/08 01:19:50;;;;;;;7.63;2.72;;;;;;;;;;6061801;23;20089;-73
2023/10/08 01:22:21;;;;;;;7.50;2.65;;;;;;;;;;6061579;23;20011;-74
2023/10/08 01:24:49;;;;;;;8.73;2.80;;;;;;;;;;6063702;23;20002;-74
2023/10/08 01:27:21;;;;;;;6.82;2.67;;;;;;;;;;6061727;23;20011;-74
2023/10/08 01:29:47;;;;;;;7.10;2.28;;;;;;;;;;6063541;23;20496;-74
2023/10/08 01:32:16;;;;;;;7.32;2.65;;;;;;;;;;6085836;23;20424;-74
2023/10/08 01:34:45;;;;;;;9.70;3.08;;;;;;;;;;6089227;23;20463;-73
2023/10/08 01:37:18;;;;;;;6.75;2.42;;;;;;;;;;6092201;23;20280;-74
2023/10/08 01:39:49;;;;;;;7.45;2.20;;;;;;;;;;6092465;23;20325;-74
2023/10/08 01:42:17;;;;;;;;;;;;;;;;;;6066832;23;20017;-74
2023/10/08 01:44:48;;;;;;;9.80;2.88;;;;;;;;;;6089952;23;19947;-74
2023/10/08 01:47:16;;;;;;;6.28;2.35;;;;;;;;;;6091868;23;20010;-74
2023/10/08 01:49:46;;;;;;;6.15;2.67;;;;;;;;;;6066082;23;20085;-74
2023/10/08 01:52:20;;;;;;;9.32;3.33;;;;;;;;;;6067192;23;20101;-74
2023/10/08 01:54:46;;;;;;;7.80;2.53;;;;;;;;;;6093633;23;20078;-74
2023/10/08 01:57:12;;;;;;;8.85;3.05;;;;;;;;;;6067879;23;20038;-74
2023/10/08 01:59:38;;;;;;;10.18;2.67;;;;;;;;;;6067904;23;20432;-73
2023/10/08 02:02:05;;;;;;;4.55;2.38;;;;;;;;;;6068067;23;20006;-73
2023/10/08 02:04:35;;;;;;;8.15;2.85;;;;;;;;;;6067978;23;20077;-74
2023/10/08 02:07:03;;;;;;;5.75;2.63;;;;;;;;;;6067661;23;20048;-74
2023/10/08 02:09:29;;;;;;;6.97;2.72;;;;;;;;;;6093658;23;20006;-74
2023/10/08 02:11:55;;;;;;;6.45;2.40;;;;;;;;;;6067678;23;20033;-74
2023/10/08 02:14:22;;;;;;;4.80;2.42;;;;;;;;;;6067884;23;20328;-74
2023/10/08 02:16:56;;;;;;;8.70;3.22;;;;;;;;;;6070540;23;20010;-74
2023/10/08 02:19:26;;;;;;;5.35;2.53;;;;;;;;;;6069694;23;20034;-73
2023/10/08 02:21:57;;;;;;;8.23;2.97;;;;;;;;;;6068261;23;20053;-73
2023/10/08 02:24:24;;;;;;;7.38;2.60;;;;;;;;;;6093798;23;20003;-74
2023/10/08 02:26:54;;;;;;;7.40;2.70;;;;;;;;;;6093573;23;20317;-74
2023/10/08 02:29:26;;;;;;;7.15;2.70;;;;;;;;;;6091696;23;20335;-74
2023/10/08 02:31:53;;;;;;;7.50;3.00;;;;;;;;;;6093127;23;20014;-75
2023/10/08 02:34:19;;;;;;;6.88;2.63;;;;;;;;;;6093611;23;20002;-74
2023/10/08 02:36:46;;;;;;;5.97;2.60;;;;;;;;;;6095048;23;20142;-72
2023/10/08 02:39:25;;;;;;;6.50;2.30;;;;;;;;;;6094828;23;20006;-74
2023/10/08 02:41:52;;;;;;;7.95;2.78;;;;;;;;;;6069152;23;20010;-73
2023/10/08 02:44:20;;;;;;;6.80;2.75;;;;;;;;;;6069370;23;20376;-73
2023/10/08 02:46:47;;;;;;;5.78;2.85;;;;;;;;;;6095177;23;20009;-74
2023/10/08 02:49:22;;;;;;;3.70;2.40;;;;;;;;;;6069304;23;20085;-74
2023/10/08 02:51:51;;;;;;;4.75;2.50;;;;;;;;;;6095564;23;20002;-72
2023/10/08 02:54:22;;;;;;;7.13;3.03;;;;;;;;;;6093804;23;20013;-75
2023/10/08 02:56:55;;;;;;;5.82;2.38;;;;;;;;;;6093377;23;20006;-73
2023/10/08 02:59:24;;;;;;;6.55;2.70;;;;;;;;;;6067553;23;20020;-73
2023/10/08 03:01:52;;;;;;;7.20;2.35;;;;;;;;;;6067644;23;20326;-74
2023/10/08 03:04:18;;;;;;;10.50;2.83;;;;;;;;;;6066921;23;20086;-74
2023/10/08 03:06:51;;;;;;;6.20;2.80;;;;;;;;;;6067024;23;20064;-73
2023/10/08 03:09:24;;;;;;;7.80;3.00;;;;;;;;;;6067384;23;20007;-74
2023/10/08 03:11:51;;;;;;;7.80;2.70;;;;;;;;;;6067229;23;20073;-74
2023/10/08 03:14:26;;;;;;;5.93;2.83;;;;;;;;;;6043527;23;20003;-74
2023/10/08 03:16:53;;;;;;;16.77;3.15;;;;;;;;;;6066910;23;20041;-74
2023/10/08 03:19:19;;;;;;;11.18;2.80;;;;;;;;;;6066944;23;19998;-74
2023/10/08 03:21:56;;;;;;;7.55;3.10;;;;;;;;;;6066938;23;20019;-74
2023/10/08 03:27:06;;;;;;;6.47;2.78;;;;;;;;;;6103007;23;20010;-74
2023/10/08 03:29:40;;;;;;;5.25;2.80;;;;;;;;;;6092916;23;20006;-74
2023/10/08 03:32:06;;;;;;;5.85;2.50;;;;;;;;;;6093228;23;20002;-74
2023/10/08 03:34:34;;;;;;;6.00;2.75;;;;;;;;;;6092536;23;20006;-73
2023/10/08 03:37:05;;;;;;;6.85;2.90;;;;;;;;;;6092841;23;20101;-74
2023/10/08 03:42:25;;;;;;;7.53;2.33;;;;;;;;;;6092584;23;20097;-74
2023/10/08 03:44:52;;;;;;;11.98;2.50;;;;;;;;;;6044709;23;20019;-73
2023/10/08 03:47:26;;;;;;;7.68;3.15;;;;;;;;;;6092764;23;20003;-73
2023/10/08 03:49:54;;;;;;;10.15;2.60;;;;;;;;;;6092843;23;20085;-74
2023/10/08 03:52:25;;;;;;;7.50;2.90;;;;;;;;;;6067202;23;20161;-74
2023/10/08 03:55:27;;;;;;;7.38;2.83;;;;;;;;;;6090665;23;20051;-74
2023/10/08 03:57:44;;;;;;;11.45;2.97;;;;;;;;;;6090880;23;20101;-74
2023/10/08 04:00:18;;;;;;;4.30;2.42;;;;;;;;;;6066671;23;20014;-74
2023/10/08 04:03:07;;;;;;;8.27;3.15;;;;;;;;;;6092165;23;20006;-73
2023/10/08 04:05:49;;;;;;;7.75;2.97;;;;;;;;;;6066384;23;20365;-74
2023/10/08 04:08:24;;;;;;;8.05;2.85;;;;;;;;;;6092291;23;20063;-74
2023/10/08 04:11:13;;;;;;;10.63;3.10;;;;;;;;;;6092029;23;20002;-73
2023/10/08 04:13:45;;;;;;;7.53;2.75;;;;;;;;;;6066555;23;20006;-74
2023/10/08 04:16:10;;;;;;;5.38;2.70;;;;;;;;;;6092833;23;20052;-73
2023/10/08 04:18:40;;;;;;;10.77;3.15;;;;;;;;;;6092332;23;20424;-74
2023/10/08 04:21:12;;;;;;;5.70;2.63;;;;;;;;;;6066851;23;20010;-74
2023/10/08 04:23:39;;;;;;;6.45;3.00;;;;;;;;;;6091839;23;20011;-73
2023/10/08 04:26:06;;;;;;;5.43;2.97;;;;;;;;;;6066827;23;20010;-74
2023/10/08 04:28:34;;;;;;;6.75;2.63;;;;;;;;;;6067569;23;20471;-75
2023/10/08 04:31:03;;;;;;;10.10;2.97;;;;;;;;;;6067194;23;20010;-73
2023/10/08 04:33:33;;;;;;;7.38;2.85;;;;;;;;;;6067613;23;20014;-74
2023/10/08 04:36:01;;;;;;;9.80;3.10;;;;;;;;;;6066740;23;20022;-72
2023/10/08 04:38:28;;;;;;;10.57;3.05;;;;;;;;;;6092748;23;20344;-73
2023/10/08 04:40:55;;;;;;;6.90;3.08;;;;;;;;;;6066741;23;20010;-73
2023/10/08 04:43:30;;;;;;;6.43;2.83;;;;;;;;;;6092117;23;20402;-73
2023/10/08 04:46:46;;;;;;;8.18;3.10;;;;;;;;;;6066645;23;20025;-74
2023/10/08 04:48:47;;;;;;;5.15;2.75;;;;;;;;;;6076619;23;20072;-73
2023/10/08 04:51:13;;;;;;;8.30;3.55;;;;;;;;;;6066958;23;20008;-73
2023/10/08 04:53:44;;;;;;;6.63;3.40;;;;;;;;;;6066351;23;20011;-74
2023/10/08 04:56:18;;;;;;;7.15;3.10;;;;;;;;;;6092399;23;20010;-73
2023/10/08 04:58:48;;;;;;;6.22;0.82;;;;;;;;;;6066582;23;20444;-74
2023/10/08 05:01:18;;;;;;;2.40;0.50;;;;;;;;;;6066716;23;20418;-74
2023/10/08 05:06:50;;;;;;;1.05;0.17;;;;;;;;;;6058396;23;20014;-73
2023/10/08 05:15:21;;;;;;;0.10;0.10;;;;;;;;;;6102314;23;20002;-72
2023/10/08 05:22:43;;;;;;;0.28;0.28;;;;;;;;;;6102023;23;20013;-72
2023/10/08 05:30:16;;;;;;;0.10;0.10;;;;;;;;;;6103886;23;20021;-71
2023/10/08 05:33:24;;;;;;;0.00;0.00;;;;;;;;;;6093655;23;20003;-73
2023/10/08 05:35:48;;;;;;;0.10;0.10;;;;;;;;;;6086282;23;20333;-71
2023/10/08 05:38:21;;;;;;;0.32;0.13;;;;;;;;;;6068305;23;20384;-72
2023/10/08 05:49:03;;;;;;;0.43;0.10;;;;;;;;;;6102948;23;20116;-71
2023/10/08 05:57:14;;;;;;;0.15;0.15;;;;;;;;;;6103051;23;20011;-73
2023/10/08 06:07:56;;;;;;;0.40;0.40;;;;;;;;;;6093866;23;20066;-72
2023/10/08 06:13:29;;;;;;;0.98;0.17;;;;;;;;;;6093909;23;20420;-74
2023/10/08 06:18:28;;;;;;;1.00;0.30;;;;;;;;;;6093572;23;20021;-72
2023/10/08 06:20:54;;;;;;;0.50;0.30;;;;;;;;;;6093138;23;20487;-72
2023/10/08 06:23:23;;;;;;;0.10;0.10;;;;;;;;;;6067856;23;20467;-73
2023/10/08 06:26:05;;;;;;;1.17;0.20;;;;;;;;;;6067568;23;20013;-72
2023/10/08 06:28:31;;;;;;;1.48;0.40;;;;;;;;;;6067747;23;20009;-71
2023/10/08 06:30:56;;;;;;;0.20;0.20;;;;;;;;;;6067408;23;20014;-72
2023/10/08 06:33:30;;;;;;;0.20;0.20;;;;;;;;;;6093425;23;20013;-72
2023/10/08 06:36:02;;;;;;;0.38;0.28;;;;;;;;;;6093148;23;20128;-72
2023/10/08 06:38:34;;;;;;;0.40;0.30;;;;;;;;;;6093332;23;20448;-73
2023/10/08 06:41:08;;;;;;;1.27;0.40;;;;;;;;;;6067381;23;20017;-72
2023/10/08 06:43:36;;;;;;;0.50;0.40;;;;;;;;;;6067617;23;20010;-72
2023/10/08 06:46:02;;;;;;;0.20;0.20;;;;;;;;;;6091719;23;20014;-74
2023/10/08 06:48:29;;;;;;;0.30;0.30;;;;;;;;;;6091507;23;20002;-72
2023/10/08 06:50:56;;;;;;;0.40;0.38;;;;;;;;;;6093012;23;20054;-72
2023/10/08 06:53:22;;;;;;;0.73;0.35;;;;;;;;;;6067216;23;20042;-72
2023/10/08 06:55:54;;;;;;;0.20;0.20;;;;;;;;;;6092996;23;20002;-72
2023/10/08 06:58:20;;;;;;;;;;;;;;;;;;6094074;23;20002;-72
2023/10/08 07:00:48;;;;;;;0.10;0.10;;;;;;;;;;6068720;23;19912;-72
2023/10/08 07:03:15;;;;;;;0.85;0.45;;;;;;;;;;6094447;23;20077;-72
2023/10/08 07:05:44;;;;;;;1.70;0.82;;;;;;;;;;6093757;23;20379;-72
2023/10/08 07:08:13;;;;;;;1.50;0.77;;;;;;;;;;6092555;23;20036;-73
2023/10/08 07:10:39;;;;;;;0.43;0.40;;;;;;;;;;6090384;23;20020;-72
2023/10/08 07:13:07;;;;;;;1.67;0.70;;;;;;;;;;6092437;23;20021;-73
2023/10/08 07:15:38;;;;;;;0.75;0.70;;;;;;;;;;6066171;23;20014;-73
2023/10/08 07:18:12;;;;;;;2.50;0.80;;;;;;;;;;6043584;23;20014;-72
2023/10/08 07:20:45;;;;;;;0.45;0.40;;;;;;;;;;6092022;23;20010;-76
2023/10/08 07:23:57;;;;;;;0.20;0.20;;;;;;;;;;6091846;23;20006;-71
2023/10/08 07:26:10;;;;;;;0.40;0.40;;;;;;;;;;6075778;23;20101;-72
2023/10/08 07:28:41;;;;;;;0.20;0.20;;;;;;;;;;6066636;23;20021;-73
2023/10/08 07:31:17;;;;;;;0.43;0.40;;;;;;;;;;6092375;23;20057;-73
2023/10/08 07:33:47;;;;;;;1.05;0.35;;;;;;;;;;6066950;23;20028;-75
2023/10/08 07:36:14;;;;;;;0.17;0.15;;;;;;;;;;6092260;23;20033;-72
2023/10/08 07:38:43;;;;;;;0.82;0.35;;;;;;;;;;6066182;23;20033;-73
2023/10/08 07:41:12;;;;;;;0.40;0.40;;;;;;;;;;6092348;23;20081;-72
2023/10/08 07:43:39;;;;;;;0.52;0.30;;;;;;;;;;6092710;23;20275;-72
2023/10/08 07:46:05;;;;;;;0.55;0.43;;;;;;;;;;6092603;23;20007;-72
2023/10/08 07:48:31;;;;;;;0.55;0.52;;;;;;;;;;6092492;23;20026;-73
2023/10/08 07:50:57;;;;;;;1.10;0.68;;;;;;;;;;6092086;23;20002;-72
2023/10/08 07:53:37;;;;;;;1.50;1.40;;;;;;;;;;6066969;23;20002;-73
2023/10/08 07:56:08;;;;;;;0.70;0.45;;;;;;;;;;6066532;23;20094;-72
2023/10/08 07:58:37;;;;;;;1.67;0.50;;;;;;;;;;6092492;23;20010;-71
2023/10/08 08:01:09;;;;;;;1.00;0.70;;;;;;;;;;6066263;23;20035;-73
2023/10/08 08:03:38;;;;;;;0.68;0.45;;;;;;;;;;6092214;23;20002;-72
2023/10/08 08:06:06;;;;;;;2.90;0.60;;;;;;;;;;6066193;23;20199;-72
2023/10/08 08:08:35;;;;;;;1.33;0.70;;;;;;;;;;6066466;23;20320;-72
2023/10/08 08:11:07;;;;;;;7.25;0.93;;;;;;;;;;6066538;23;20161;-73
2023/10/08 08:13:35;;;;;;;1.58;0.77;;;;;;;;;;6092422;23;20029;-71
2023/10/08 08:16:17;;;;;;;1.23;0.50;;;;;;;;;;6091635;23;20073;-73
2023/10/08 08:18:48;;;;;;;1.13;0.65;;;;;;;;;;6066273;23;20034;-73
2023/10/08 08:21:19;;;;;;;3.08;0.88;;;;;;;;;;6067056;23;20010;-73
2023/10/08 08:23:49;;;;;;;1.05;0.50;;;;;;;;;;6043317;23;20006;-73
2023/10/08 08:26:28;;;;;;;0.82;0.70;;;;;;;;;;6066586;23;20089;-71
2023/10/08 08:29:01;;;;;;;1.27;1.17;;;;;;;;;;6091254;23;20010;-73
2023/10/08 08:31:31;;;;;;;1.75;0.77;;;;;;;;;;6066856;23;20086;-75
2023/10/08 08:34:02;;;;;;;0.77;0.60;;;;;;;;;;6066601;23;20002;-72
2023/10/08 08:36:37;;;;;;;3.15;1.20;;;;;;;;;;6066704;23;20325;-73
2023/10/08 08:39:08;;;;;;;2.13;1.42;;;;;;;;;;6092082;23;20002;-72
2023/10/08 08:41:39;;;;;;;1.55;1.00;;;;;;;;;;6068390;23;20010;-73
2023/10/08 08:44:06;;;;;;;1.15;0.80;;;;;;;;;;6090567;23;20441;-71
2023/10/08 08:46:37;;;;;;;3.05;0.98;;;;;;;;;;6092362;23;20437;-73
2023/10/08 08:49:05;;;;;;;5.43;0.93;;;;;;;;;;6066404;23;20007;-72
2023/10/08 08:51:31;;;;;;;5.30;1.10;;;;;;;;;;6066555;23;20236;-72
2023/10/08 08:54:00;;;;;;;1.70;0.90;;;;;;;;;;6066842;23;20010;-74
2023/10/08 08:56:26;;;;;;;1.95;0.80;;;;;;;;;;6066659;23;20035;-71
2023/10/08 08:58:51;;;;;;;2.00;0.60;;;;;;;;;;6091888;23;20003;-73
2023/10/08 09:01:19;;;;;;;3.47;0.75;;;;;;;;;;6066998;23;20071;-75
2023/10/08 09:03:48;;;;;;;4.82;1.63;;;;;;;;;;6069003;23;20010;-75
2023/10/08 09:06:13;;;;;;;2.38;0.70;;;;;;;;;;6069083;23;20002;-74
2023/10/08 09:08:42;;;;;;;1.85;0.70;;;;;;;;;;6095883;23;20029;-76
2023/10/08 09:11:08;;;;;;;5.97;3.30;;;;;;;;;;6068817;23;20010;-74
2023/10/08 09:13:35;;;;;;;3.78;1.60;;;;;;;;;;6069454;23;20034;-75
2023/10/08 09:16:13;;;;;;;6.53;1.55;;;;;;;;;;6070466;23;20042;-74
2023/10/08 09:18:40;;;;;;;0.85;0.82;;;;;;;;;;6095135;23;20061;-75
2023/10/08 09:21:19;;;;;;;1.65;0.70;;;;;;;;;;6069361;23;20009;-75
2023/10/08 09:23:50;;;;;;;2.53;1.05;;;;;;;;;;6070010;23;20006;-75
2023/10/08 09:26:22;;;;;;;1.95;0.82;;;;;;;;;;6096877;23;20007;-74
2023/10/08 09:28:49;;;;;;;3.15;1.10;;;;;;;;;;6097068;23;20013;-75
2023/10/08 09:31:17;;;;;;;3.90;1.55;;;;;;;;;;6070179;23;20077;-75
2023/10/08 09:33:52;;;;;;;4.88;1.13;;;;;;;;;;6070818;23;20003;-75
2023/10/08 09:36:19;;;;;;;1.98;1.20;;;;;;;;;;6069058;23;20069;-75
2023/10/08 09:38:48;;;;;;;2.00;1.20;;;;;;;;;;6093583;23;19999;-76
2023/10/08 09:41:14;;;;;;;4.05;0.90;;;;;;;;;;6068100;23;20010;-76
2023/10/08 09:43:41;;;;;;;4.00;0.98;;;;;;;;;;6069000;23;20080;-75
2023/10/08 09:46:19;;;;;;;1.15;0.60;;;;;;;;;;6094176;23;20006;-75
2023/10/08 09:49:01;;;;;;;2.55;1.10;;;;;;;;;;6094512;23;20002;-75
2023/10/08 09:51:30;;;;;;;3.03;1.25;;;;;;;;;;6068108;23;20007;-76
2023/10/08 09:54:13;;;;;;;5.07;1.65;;;;;;;;;;6068065;23;20010;-75
2023/10/08 09:56:40;;;;;;;3.58;1.40;;;;;;;;;;6068163;23;20682;-75
2023/10/08 09:59:09;;;;;;;2.28;1.40;;;;;;;;;;6067064;23;20351;-75
2023/10/08 10:01:40;;;;;;;4.38;1.30;;;;;;;;;;6093419;23;20002;-75
2023/10/08 10:04:09;;;;;;;4.50;1.23;;;;;;;;;;6067294;23;20069;-75
2023/10/08 10:06:36;;;;;;;3.38;1.52;;;;;;;;;;6067855;23;20010;-75
2023/10/08 10:09:06;;;;;;;4.03;1.77;;;;;;;;;;6067182;23;20007;-75
2023/10/08 10:11:31;;;;;;;7.07;1.70;;;;;;;;;;6093446;23;20022;-76
2023/10/08 10:14:06;;;;;;;3.33;1.50;;;;;;;;;;6090916;23;20025;-75
2023/10/08 10:16:32;;;;;;;3.20;1.65;;;;;;;;;;6093159;23;20009;-72
2023/10/08 10:19:00;;;;;;;4.20;1.45;;;;;;;;;;6093152;23;20104;-72
2023/10/08 10:21:30;;;;;;;2.22;1.40;;;;;;;;;;6067193;23;20109;-72
2023/10/08 10:23:57;;;;;;;5.97;2.45;;;;;;;;;;6093141;23;20022;-73
2023/10/08 10:26:33;;;;;;;5.03;2.47;;;;;;;;;;6067645;23;20372;-73
2023/10/08 10:29:14;;;;;;;8.35;2.00;;;;;;;;;;6092527;23;20377;-72
2023/10/08 10:31:58;;;;;;;6.97;2.03;;;;;;;;;;6067920;23;20393;-73
2023/10/08 10:34:27;;;;;;;5.15;2.15;;;;;;;;;;6067408;23;20333;-71
2023/10/08 10:36:58;;;;;;;7.55;2.08;;;;;;;;;;6093184;23;20013;-73
2023/10/08 10:39:31;;;;;;;2.42;1.55;;;;;;;;;;6067614;23;20041;-71
2023/10/08 10:42:01;;;;;;;4.03;1.70;;;;;;;;;;6093926;23;20042;-72
2023/10/08 10:44:29;;;;;;;3.90;1.95;;;;;;;;;;6093603;23;20006;-73
2023/10/08 10:52:31;;;;;;;3.17;1.65;;;;;;;;;;6079474;23;20101;-73
2023/10/08 10:55:18;;;;;;;5.80;1.83;;;;;;;;;;6093454;23;20424;-75
2023/10/08 10:57:54;;;;;;;2.15;1.70;;;;;;;;;;6067621;23;20471;-76
2023/10/08 11:03:17;;;;;;;7.57;1.90;;;;;;;;;;6103498;23;20053;-77
2023/10/08 11:06:06;;;;;;;5.43;1.80;;;;;;;;;;6047767;23;20455;-76
2023/10/08 11:08:34;;;;;;;3.10;1.60;;;;;;;;;;6068284;23;20013;-75
2023/10/08 11:11:05;;;;;;;5.93;2.50;;;;;;;;;;6068705;23;20060;-76
2023/10/08 11:13:38;;;;;;;6.35;1.88;;;;;;;;;;6099161;23;20043;-74
2023/10/08 11:16:23;;;;;;;6.30;2.72;;;;;;;;;;6101840;23;20065;-74
2023/10/08 11:18:50;;;;;;;9.13;2.58;;;;;;;;;;6070616;23;20328;-76
2023/10/08 11:21:22;;;;;;;7.90;2.05;;;;;;;;;;6068905;23;20010;-75
2023/10/08 11:24:08;;;;;;;6.13;2.65;;;;;;;;;;6045862;23;20452;-76
2023/10/08 11:26:54;;;;;;;5.70;2.03;;;;;;;;;;6048157;23;20073;-76
2023/10/08 11:29:25;;;;;;;4.32;1.58;;;;;;;;;;6067396;23;20120;-77
2023/10/08 11:31:51;;;;;;;4.28;1.83;;;;;;;;;;6045637;23;20384;-75
2023/10/08 11:34:23;;;;;;;3.40;1.95;;;;;;;;;;6092985;23;20006;-74
2023/10/08 11:36:53;;;;;;;7.85;2.53;;;;;;;;;;6093103;23;20010;-76
2023/10/08 11:39:22;;;;;;;5.03;2.17;;;;;;;;;;6093058;23;20036;-75
2023/10/08 11:42:16;;;;;;;3.50;2.05;;;;;;;;;;6067458;23;20038;-75
2023/10/08 11:44:43;;;;;;;5.55;2.33;;;;;;;;;;6066950;23;20006;-75
2023/10/08 11:47:13;;;;;;;3.78;1.90;;;;;;;;;;6066580;23;20006;-75
2023/10/08 11:49:47;;;;;;;4.60;2.33;;;;;;;;;;6092650;23;20003;-75
2023/10/08 11:52:15;;;;;;;5.63;2.00;;;;;;;;;;6066945;23;20003;-75
2023/10/08 11:54:42;;;;;;;4.82;1.60;;;;;;;;;;6068116;23;20042;-75
2023/10/08 11:57:09;;;;;;;7.60;2.08;;;;;;;;;;6092563;23;20300;-74
2023/10/08 11:59:39;;;;;;;3.80;1.92;;;;;;;;;;6066892;23;20420;-75
2023/10/08 12:02:06;;;;;;;4.03;1.65;;;;;;;;;;6067382;23;20014;-76
2023/10/08 12:04:32;;;;;;;8.35;2.67;;;;;;;;;;6093091;23;20285;-76
2023/10/08 12:07:02;;;;;;;7.45;2.40;;;;;;;;;;6092218;23;20013;-75
2023/10/08 12:09:27;;;;;;;3.38;1.73;;;;;;;;;;6068585;23;20091;-76
2023/10/08 12:11:54;;;;;;;2.55;1.65;;;;;;;;;;6093367;23;20002;-73
2023/10/08 12:14:19;;;;;;;6.43;1.67;;;;;;;;;;6092527;23;20002;-71
2023/10/08 12:16:45;;;;;;;2.78;1.48;;;;;;;;;;6042998;23;20101;-73
2023/10/08 12:19:17;;;;;;;3.65;1.73;;;;;;;;;;6066942;23;20009;-73
2023/10/08 12:21:47;;;;;;;3.97;1.88;;;;;;;;;;6067108;23;20016;-72
2023/10/08 12:24:13;;;;;;;5.95;2.25;;;;;;;;;;6066612;23;20329;-72
2023/10/08 12:26:45;;;;;;;5.10;1.85;;;;;;;;;;6067071;23;20068;-72
2023/10/08 12:29:14;;;;;;;4.38;1.88;;;;;;;;;;6066630;23;20428;-74
2023/10/08 12:31:40;;;;;;;3.47;1.50;;;;;;;;;;6066694;23;20397;-71
2023/10/08 12:34:06;;;;;;;2.50;1.33;;;;;;;;;;6091972;23;20388;-73
2023/10/08 12:36:36;;;;;;;6.20;1.90;;;;;;;;;;6092281;23;20018;-73
2023/10/08 12:39:11;;;;;;;4.47;2.17;;;;;;;;;;6092080;23;20022;-71
2023/10/08 12:41:38;;;;;;;4.35;2.00;;;;;;;;;;6091345;23;20015;-74
2023/10/08 12:44:07;;;;;;;4.95;2.20;;;;;;;;;;6091783;23;20006;-73
2023/10/08 12:46:34;;;;;;;5.18;1.90;;;;;;;;;;6066772;23;20042;-73
2023/10/08 12:49:01;;;;;;;2.97;1.63;;;;;;;;;;6069170;23;20358;-72
2023/10/08 12:51:31;;;;;;;3.08;1.80;;;;;;;;;;6073151;23;20025;-73
2023/10/08 12:53:58;;;;;;;9.13;1.75;;;;;;;;;;6095699;23;20007;-73
2023/10/08 12:56:48;;;;;;;5.72;2.05;;;;;;;;;;6067022;23;20002;-73
2023/10/08 12:59:20;;;;;;;6.78;1.85;;;;;;;;;;6091853;23;20077;-72
2023/10/08 13:02:07;;;;;;;6.53;1.60;;;;;;;;;;6067287;23;20053;-72
2023/10/08 13:04:34;;;;;;;4.72;2.08;;;;;;;;;;6090929;23;20012;-74
2023/10/08 13:07:02;;;;;;;4.18;2.00;;;;;;;;;;6067130;23;20281;-73
2023/10/08 13:09:30;;;;;;;4.82;1.63;;;;;;;;;;6092393;23;20006;-73
2023/10/08 13:11:59;;;;;;;3.50;2.08;;;;;;;;;;6066509;23;20092;-72
2023/10/08 13:14:25;;;;;;;4.72;1.95;;;;;;;;;;6092463;23;20033;-72
2023/10/08 13:16:53;;;;;;;2.30;1.40;;;;;;;;;;6067397;23;20042;-72
2023/10/08 13:19:22;;;;;;;3.67;1.80;;;;;;;;;;6066441;23;20062;-74
2023/10/08 13:21:52;;;;;;;7.65;2.08;;;;;;;;;;6092434;23;20105;-72
2023/10/08 13:24:18;;;;;;;5.10;2.00;;;;;;;;;;6089990;23;20033;-72
2023/10/08 13:26:48;;;;;;;4.03;1.13;;;;;;;;;;6066755;23;20325;-73
2023/10/08 13:29:14;;;;;;;3.60;1.73;;;;;;;;;;6091887;23;20340;-73
2023/10/08 13:31:39;;;;;;;3.10;1.13;;;;;;;;;;6066264;23;20002;-72
2023/10/08 13:34:08;;;;;;;6.20;1.90;;;;;;;;;;6066539;23;20025;-73
2023/10/08 13:36:37;;;;;;;4.60;1.33;;;;;;;;;;6092364;23;20391;-73
2023/10/08 13:39:08;;;;;;;3.35;1.40;;;;;;;;;;6066634;23;20051;-72
2023/10/08 13:41:34;;;;;;;2.58;1.27;;;;;;;;;;6092970;23;20010;-73
2023/10/08 13:44:05;;;;;;;3.75;1.42;;;;;;;;;;6066404;23;20595;-76
2023/10/08 13:46:35;;;;;;;5.30;1.92;;;;;;;;;;6066530;23;20013;-73
2023/10/08 13:49:01;;;;;;;5.78;1.70;;;;;;;;;;6093549;23;20006;-72
2023/10/08 13:51:27;;;;;;;3.45;1.80;;;;;;;;;;6092440;23;20409;-75
2023/10/08 13:53:59;;;;;;;3.45;1.40;;;;;;;;;;6067854;23;20002;-72
2023/10/08 13:56:32;;;;;;;4.68;1.52;;;;;;;;;;6093780;23;20018;-72
2023/10/08 13:59:14;;;;;;;8.52;4.10;;;;;;;;;;6067682;23;20013;-74
2023/10/08 14:01:51;;;;;;;5.00;1.40;;;;;;;;;;6093811;23;20034;-72
2023/10/08 14:04:19;;;;;;;3.95;1.40;;;;;;;;;;6044978;23;20022;-72
2023/10/08 14:06:51;;;;;;;2.15;1.60;;;;;;;;;;6067972;23;20010;-71
2023/10/08 14:09:30;;;;;;;3.85;1.75;;;;;;;;;;6067699;23;20065;-74
2023/10/08 14:12:01;;;;;;;3.53;1.30;;;;;;;;;;6094171;23;20037;-76
2023/10/08 14:14:29;;;;;;;2.83;1.30;;;;;;;;;;6067758;23;20002;-72
2023/10/08 14:16:59;;;;;;;3.60;1.50;;;;;;;;;;6093671;23;20003;-73
2023/10/08 14:19:35;;;;;;;4.60;1.45;;;;;;;;;;6067722;23;20010;-73
2023/10/08 14:22:08;;;;;;;4.90;1.77;;;;;;;;;;6067680;23;20057;-72
2023/10/08 14:24:37;;;;;;;2.63;1.50;;;;;;;;;;6067568;23;20014;-72
2023/10/08 14:27:09;;;;;;;5.15;1.45;;;;;;;;;;6067581;23;20064;-73
2023/10/08 14:29:38;;;;;;;2.60;1.38;;;;;;;;;;6067787;23;20013;-73
2023/10/08 14:32:08;;;;;;;4.72;1.60;;;;;;;;;;6067316;23;20335;-73
2023/10/08 14:42:56;;;;;;;3.28;1.60;;;;;;;;;;6093831;23;20021;-74
2023/10/08 14:45:25;;;;;;;3.75;1.42;;;;;;;;;;6068156;23;20026;-74
2023/10/08 14:47:53;;;;;;;1.92;0.98;;;;;;;;;;6068572;23;20093;-72
2023/10/08 14:50:19;;;;;;;1.67;1.13;;;;;;;;;;6091751;23;20070;-76
2023/10/08 14:52:47;;;;;;;2.28;1.40;;;;;;;;;;6093630;23;20333;-77
2023/10/08 14:55:21;;;;;;;5.32;1.48;;;;;;;;;;6093606;23;20050;-78
2023/10/08 14:57:47;;;;;;;3.00;1.00;;;;;;;;;;6091950;23;20018;-79
2023/10/08 15:00:14;;;;;;;2.83;0.95;;;;;;;;;;6093623;23;20029;-81
2023/10/08 15:02:39;;;;;;;2.75;1.30;;;;;;;;;;6071125;23;20140;-79
2023/10/08 15:05:06;;;;;;;3.53;1.25;;;;;;;;;;6070460;23;20035;-77
2023/10/08 15:07:36;;;;;;;2.50;1.55;;;;;;;;;;6092863;23;20033;-77
2023/10/08 15:10:03;;;;;;;3.58;1.40;;;;;;;;;;6067483;23;20064;-78
2023/10/08 15:12:28;;;;;;;2.17;1.27;;;;;;;;;;6043354;23;20010;-76
2023/10/08 15:14:54;;;;;;;4.00;1.70;;;;;;;;;;6067722;23;20013;-76
2023/10/08 15:17:21;;;;;;;5.57;1.60;;;;;;;;;;6068053;23;20006;-75
2023/10/08 15:19:46;;;;;;;2.67;1.15;;;;;;;;;;6068970;23;20070;-75
2023/10/08 15:22:12;;;;;;;3.90;1.25;;;;;;;;;;6068512;23;20006;-76
2023/10/08 15:24:39;;;;;;;5.93;1.83;;;;;;;;;;6093810;23;20454;-75
2023/10/08 15:27:07;;;;;;;4.15;1.75;;;;;;;;;;6094571;23;20014;-76
2023/10/08 15:29:33;;;;;;;6.45;1.95;;;;;;;;;;6095439;23;20017;-75
2023/10/08 15:31:59;;;;;;;4.80;1.60;;;;;;;;;;6071150;23;20010;-77
2023/10/08 15:34:26;;;;;;;3.42;1.52;;;;;;;;;;6069102;23;20053;-74
2023/10/08 15:36:55;;;;;;;5.05;1.58;;;;;;;;;;6068057;23;20416;-74
2023/10/08 15:39:24;;;;;;;3.95;1.90;;;;;;;;;;6092980;23;20113;-74
2023/10/08 15:41:50;;;;;;;3.95;1.75;;;;;;;;;;6067204;23;20011;-75
2023/10/08 15:44:20;;;;;;;2.38;2.17;;;;;;;;;;6091189;23;20490;-75
2023/10/08 15:46:46;;;;;;;5.65;1.75;;;;;;;;;;6092724;23;20010;-76
2023/10/08 15:49:12;;;;;;;4.38;1.95;;;;;;;;;;6092698;23;20045;-77
2023/10/08 15:51:38;;;;;;;3.75;1.92;;;;;;;;;;6093294;23;20002;-75
2023/10/08 15:54:05;;;;;;;5.80;1.63;;;;;;;;;;6093837;23;20013;-75
2023/10/08 15:56:31;;;;;;;1.90;1.50;;;;;;;;;;6092407;23;20408;-74
2023/10/08 15:58:57;;;;;;;6.18;1.80;;;;;;;;;;6067549;23;20362;-76
2023/10/08 16:01:23;;;;;;;6.80;3.00;;;;;;;;;;6066585;23;20066;-75
2023/10/08 16:03:50;;;;;;;3.60;2.38;;;;;;;;;;6092353;23;20013;-76
2023/10/08 16:06:18;;;;;;;4.72;2.33;;;;;;;;;;6066485;23;20137;-75
2023/10/08 16:08:43;;;;;;;2.70;1.83;;;;;;;;;;6092216;23;20025;-76
2023/10/08 16:11:09;;;;;;;3.78;1.83;;;;;;;;;;6065818;23;20010;-75
2023/10/08 16:13:34;;;;;;;5.18;2.47;;;;;;;;;;6092473;23;20009;-75